sensor_id;sensor_type;location;lat;lon;timestamp;pressure;altitude;pressure_sealevel;temperature;humidity
10348;BME280;5220;43.192;23.284;2023-04-21T00:02:17;96541.38;;;10.81;100.00
10348;BME280;5220;43.192;23.284;2023-04-21T00:04:45;96538.19;;;10.77;100.00
10348;BME280;5220;43.192;23.284;2023-04-21T00:07:12;96536.56;;;10.76;100.00
10348;BME280;5220;43.192;23.284;2023-04-21T00:09:40;96540.34;;;10.72;100.00
10348;BME280;5220;43.192;23.284;2023-04-21T00:12:07;96539.19;;;10.65;100.00
10348;BME280;5220;43.192;23.284;2023-04-21T00:14:34;96552.44;;;10.62;100.00
10348;BME280;5220;43.192;23.284;2023-04-21T00:17:00;96554.94;;;10.64;100.00
10348;BME280;5220;43.192;23.284;2023-04-21T00:19:27;96547.59;;;10.58;100.00
10348;BME280;5220;43.192;23.284;2023-04-21T00:21:55;96544.66;;;10.51;100.00
10348;BME280;5220;43.192;23.284;2023-04-21T00:24:24;96541.03;;;10.32;100.00
10348;BME280;5220;43.192;23.284;2023-04-21T00:26:50;96534.53;;;10.04;100.00
10348;BME280;5220;43.192;23.284;2023-04-21T00:29:17;96533.59;;;10.16;100.00
10348;BME280;5220;43.192;23.284;2023-04-21T00:31:44;96538.31;;;10.11;100.00
10348;BME280;5220;43.192;23.284;2023-04-21T00:34:10;96535.38;;;10.15;100.00
10348;BME280;5220;43.192;23.284;2023-04-21T00:36:37;96538.22;;;10.23;100.00
10348;BME280;5220;43.192;23.284;2023-04-21T00:39:05;96540.81;;;10.23;100.00
10348;BME280;5220;43.192;23.284;2023-04-21T00:41:32;96538.91;;;10.25;100.00
10348;BME280;5220;43.192;23.284;2023-04-21T00:44:01;96541.16;;;10.30;100.00
10348;BME280;5220;43.192;23.284;2023-04-21T00:46:28;96537.72;;;10.30;100.00
10348;BME280;5220;43.192;23.284;2023-04-21T00:48:55;96529.19;;;10.27;100.00
10348;BME280;5220;43.192;23.284;2023-04-21T00:51:23;96522.03;;;10.20;100.00
10348;BME280;5220;43.192;23.284;2023-04-21T00:53:50;96528.59;;;10.13;100.00
10348;BME280;5220;43.192;23.284;2023-04-21T00:56:18;96531.59;;;10.19;100.00
10348;BME280;5220;43.192;23.284;2023-04-21T00:58:47;96524.88;;;10.17;100.00
10348;BME280;5220;43.192;23.284;2023-04-21T01:01:14;96530.38;;;10.12;100.00
10348;BME280;5220;43.192;23.284;2023-04-21T01:03:41;96523.41;;;10.13;100.00
10348;BME280;5220;43.192;23.284;2023-04-21T01:06:08;96525.31;;;10.11;100.00
10348;BME280;5220;43.192;23.284;2023-04-21T01:08:35;96529.47;;;10.13;100.00
10348;BME280;5220;43.192;23.284;2023-04-21T01:11:08;96518.22;;;10.02;100.00
10348;BME280;5220;43.192;23.284;2023-04-21T01:13:36;96523.78;;;10.08;100.00
10348;BME280;5220;43.192;23.284;2023-04-21T01:16:04;96517.50;;;10.11;100.00
10348;BME280;5220;43.192;23.284;2023-04-21T01:18:31;96520.84;;;10.02;100.00
10348;BME280;5220;43.192;23.284;2023-04-21T01:20:57;96513.25;;;9.88;100.00
10348;BME280;5220;43.192;23.284;2023-04-21T01:23:26;96514.47;;;9.84;100.00
10348;BME280;5220;43.192;23.284;2023-04-21T01:25:53;96517.41;;;9.79;100.00
10348;BME280;5220;43.192;23.284;2023-04-21T01:28:21;96512.44;;;9.87;100.00
10348;BME280;5220;43.192;23.284;2023-04-21T01:30:47;96512.31;;;9.89;100.00
10348;BME280;5220;43.192;23.284;2023-04-21T01:33:14;96513.75;;;9.93;100.00
10348;BME280;5220;43.192;23.284;2023-04-21T01:35:41;96505.38;;;9.89;100.00
10348;BME280;5220;43.192;23.284;2023-04-21T01:38:08;96511.16;;;9.93;100.00
10348;BME280;5220;43.192;23.284;2023-04-21T01:40:37;96514.31;;;9.96;100.00
10348;BME280;5220;43.192;23.284;2023-04-21T01:43:06;96515.88;;;9.99;100.00
10348;BME280;5220;43.192;23.284;2023-04-21T01:45:33;96505.47;;;9.99;100.00
10348;BME280;5220;43.192;23.284;2023-04-21T01:48:00;96512.31;;;10.00;100.00
10348;BME280;5220;43.192;23.284;2023-04-21T01:50:27;96514.22;;;9.98;100.00
10348;BME280;5220;43.192;23.284;2023-04-21T01:52:54;96510.69;;;9.99;100.00
10348;BME280;5220;43.192;23.284;2023-04-21T01:55:21;96518.22;;;9.91;100.00
10348;BME280;5220;43.192;23.284;2023-04-21T01:57:49;96516.34;;;9.93;100.00
10348;BME280;5220;43.192;23.284;2023-04-21T02:00:16;96505.00;;;9.83;100.00
10348;BME280;5220;43.192;23.284;2023-04-21T02:02:43;96511.63;;;9.87;100.00
10348;BME280;5220;43.192;23.284;2023-04-21T02:05:09;96513.25;;;9.88;100.00
10348;BME280;5220;43.192;23.284;2023-04-21T02:07:36;96510.81;;;9.86;100.00
10348;BME280;5220;43.192;23.284;2023-04-21T02:10:03;96512.66;;;9.84;100.00
10348;BME280;5220;43.192;23.284;2023-04-21T02:12:30;96511.03;;;9.83;100.00
10348;BME280;5220;43.192;23.284;2023-04-21T02:14:58;96508.78;;;9.79;100.00
10348;BME280;5220;43.192;23.284;2023-04-21T02:17:25;96495.44;;;9.72;100.00
10348;BME280;5220;43.192;23.284;2023-04-21T02:19:51;96513.97;;;9.79;100.00
10348;BME280;5220;43.192;23.284;2023-04-21T02:22:18;96509.16;;;9.74;100.00
10348;BME280;5220;43.192;23.284;2023-04-21T02:24:46;96500.53;;;9.73;100.00
10348;BME280;5220;43.192;23.284;2023-04-21T02:27:13;96505.72;;;9.73;100.00
10348;BME280;5220;43.192;23.284;2023-04-21T02:29:40;96504.75;;;9.74;100.00
10348;BME280;5220;43.192;23.284;2023-04-21T02:32:08;96504.06;;;9.72;100.00
10348;BME280;5220;43.192;23.284;2023-04-21T02:34:35;96510.91;;;9.73;100.00
10348;BME280;5220;43.192;23.284;2023-04-21T02:37:01;96517.97;;;9.71;100.00
10348;BME280;5220;43.192;23.284;2023-04-21T02:39:29;96522.38;;;9.71;100.00
10348;BME280;5220;43.192;23.284;2023-04-21T02:41:56;96509.72;;;9.66;100.00
10348;BME280;5220;43.192;23.284;2023-04-21T02:44:23;96520.56;;;9.60;100.00
10348;BME280;5220;43.192;23.284;2023-04-21T02:46:49;96530.59;;;9.54;100.00
10348;BME280;5220;43.192;23.284;2023-04-21T02:49:17;96521.28;;;9.51;100.00
10348;BME280;5220;43.192;23.284;2023-04-21T02:51:44;96520.56;;;9.49;100.00
10348;BME280;5220;43.192;23.284;2023-04-21T02:54:12;96518.22;;;9.46;100.00
10348;BME280;5220;43.192;23.284;2023-04-21T02:56:38;96523.41;;;9.46;100.00
10348;BME280;5220;43.192;23.284;2023-04-21T02:59:05;96520.22;;;9.43;100.00
10348;BME280;5220;43.192;23.284;2023-04-21T03:01:32;96519.84;;;9.36;100.00
10348;BME280;5220;43.192;23.284;2023-04-21T03:03:58;96521.69;;;9.34;100.00
10348;BME280;5220;43.192;23.284;2023-04-21T03:06:26;96518.88;;;9.37;100.00
10348;BME280;5220;43.192;23.284;2023-04-21T03:08:53;96517.47;;;9.33;100.00
10348;BME280;5220;43.192;23.284;2023-04-21T03:11:21;96522.28;;;9.27;100.00
10348;BME280;5220;43.192;23.284;2023-04-21T03:13:47;96523.00;;;9.29;100.00
10348;BME280;5220;43.192;23.284;2023-04-21T03:16:14;96526.41;;;9.29;100.00
10348;BME280;5220;43.192;23.284;2023-04-21T03:18:41;96524.28;;;9.23;100.00
10348;BME280;5220;43.192;23.284;2023-04-21T03:21:07;96525.22;;;9.22;100.00
10348;BME280;5220;43.192;23.284;2023-04-21T03:23:36;96527.19;;;9.07;100.00
10348;BME280;5220;43.192;23.284;2023-04-21T03:26:05;96523.44;;;9.11;100.00
10348;BME280;5220;43.192;23.284;2023-04-21T03:28:32;96524.91;;;9.03;100.00
10348;BME280;5220;43.192;23.284;2023-04-21T03:30:59;96528.25;;;9.05;100.00
10348;BME280;5220;43.192;23.284;2023-04-21T03:33:26;96535.44;;;9.12;100.00
10348;BME280;5220;43.192;23.284;2023-04-21T03:35:53;96532.63;;;9.15;100.00
10348;BME280;5220;43.192;23.284;2023-04-21T03:38:19;96537.59;;;9.18;100.00
10348;BME280;5220;43.192;23.284;2023-04-21T03:40:48;96541.69;;;9.10;100.00
10348;BME280;5220;43.192;23.284;2023-04-21T03:43:14;96535.56;;;9.11;100.00
10348;BME280;5220;43.192;23.284;2023-04-21T03:45:41;96542.91;;;9.17;100.00
10348;BME280;5220;43.192;23.284;2023-04-21T03:48:08;96543.38;;;9.22;100.00
10348;BME280;5220;43.192;23.284;2023-04-21T03:50:34;96548.13;;;9.28;100.00
10348;BME280;5220;43.192;23.284;2023-04-21T03:53:01;96542.91;;;9.28;100.00
10348;BME280;5220;43.192;23.284;2023-04-21T03:55:28;96555.34;;;9.36;100.00
10348;BME280;5220;43.192;23.284;2023-04-21T03:57:56;96555.94;;;9.39;100.00
10348;BME280;5220;43.192;23.284;2023-04-21T04:00:23;96561.63;;;9.44;100.00
10348;BME280;5220;43.192;23.284;2023-04-21T04:02:49;96562.22;;;9.48;100.00
10348;BME280;5220;43.192;23.284;2023-04-21T04:05:16;96555.25;;;9.48;100.00
10348;BME280;5220;43.192;23.284;2023-04-21T04:07:44;96561.97;;;9.51;100.00
10348;BME280;5220;43.192;23.284;2023-04-21T04:10:10;96562.81;;;9.51;100.00
10348;BME280;5220;43.192;23.284;2023-04-21T04:12:37;96561.97;;;9.51;100.00
10348;BME280;5220;43.192;23.284;2023-04-21T04:15:06;96568.47;;;9.56;100.00
10348;BME280;5220;43.192;23.284;2023-04-21T04:17:33;96565.78;;;9.58;100.00
10348;BME280;5220;43.192;23.284;2023-04-21T04:20:00;96567.31;;;9.49;100.00
10348;BME280;5220;43.192;23.284;2023-04-21T04:22:28;96568.25;;;9.59;100.00
10348;BME280;5220;43.192;23.284;2023-04-21T04:24:55;96572.03;;;9.66;100.00
10348;BME280;5220;43.192;23.284;2023-04-21T04:27:24;96572.78;;;9.80;100.00
10348;BME280;5220;43.192;23.284;2023-04-21T04:29:51;96568.31;;;9.93;100.00
10348;BME280;5220;43.192;23.284;2023-04-21T04:32:19;96586.72;;;10.01;100.00
10348;BME280;5220;43.192;23.284;2023-04-21T04:34:46;96570.91;;;10.15;100.00
10348;BME280;5220;43.192;23.284;2023-04-21T04:37:13;96578.28;;;10.21;100.00
10348;BME280;5220;43.192;23.284;2023-04-21T04:39:39;96582.53;;;10.33;100.00
10348;BME280;5220;43.192;23.284;2023-04-21T04:42:06;96586.06;;;10.21;100.00
10348;BME280;5220;43.192;23.284;2023-04-21T04:44:34;96578.25;;;10.32;100.00
10348;BME280;5220;43.192;23.284;2023-04-21T04:47:01;96586.38;;;10.50;100.00
10348;BME280;5220;43.192;23.284;2023-04-21T04:49:29;96582.38;;;10.46;100.00
10348;BME280;5220;43.192;23.284;2023-04-21T04:51:56;96588.00;;;10.62;100.00
10348;BME280;5220;43.192;23.284;2023-04-21T04:54:24;96584.13;;;10.67;100.00
10348;BME280;5220;43.192;23.284;2023-04-21T04:56:50;96576.63;;;10.85;100.00
10348;BME280;5220;43.192;23.284;2023-04-21T04:59:17;96587.66;;;11.09;100.00
10348;BME280;5220;43.192;23.284;2023-04-21T05:01:45;96583.94;;;11.23;100.00
10348;BME280;5220;43.192;23.284;2023-04-21T05:04:11;96558.56;;;11.36;100.00
10348;BME280;5220;43.192;23.284;2023-04-21T05:06:41;96583.16;;;11.64;100.00
10348;BME280;5220;43.192;23.284;2023-04-21T05:09:08;96577.78;;;11.76;100.00
10348;BME280;5220;43.192;23.284;2023-04-21T05:11:35;96579.22;;;11.90;100.00
10348;BME280;5220;43.192;23.284;2023-04-21T05:14:02;96581.69;;;11.92;100.00
10348;BME280;5220;43.192;23.284;2023-04-21T05:16:29;96572.78;;;11.94;100.00
10348;BME280;5220;43.192;23.284;2023-04-21T05:19:00;96581.59;;;12.23;100.00
10348;BME280;5220;43.192;23.284;2023-04-21T05:21:27;96583.78;;;12.28;100.00
10348;BME280;5220;43.192;23.284;2023-04-21T05:23:55;96578.22;;;12.52;100.00
10348;BME280;5220;43.192;23.284;2023-04-21T05:26:22;96576.38;;;12.73;100.00
10348;BME280;5220;43.192;23.284;2023-04-21T05:28:49;96579.03;;;12.92;100.00
10348;BME280;5220;43.192;23.284;2023-04-21T05:31:15;96576.72;;;13.08;100.00
10348;BME280;5220;43.192;23.284;2023-04-21T05:33:42;96584.44;;;13.29;100.00
10348;BME280;5220;43.192;23.284;2023-04-21T05:36:09;96584.84;;;13.53;100.00
10348;BME280;5220;43.192;23.284;2023-04-21T05:38:36;96577.38;;;13.68;100.00
10348;BME280;5220;43.192;23.284;2023-04-21T05:41:05;96584.25;;;13.88;100.00
10348;BME280;5220;43.192;23.284;2023-04-21T05:43:31;96587.09;;;14.04;100.00
10348;BME280;5220;43.192;23.284;2023-04-21T05:45:58;96579.91;;;14.16;100.00
10348;BME280;5220;43.192;23.284;2023-04-21T05:48:25;96585.13;;;14.16;100.00
10348;BME280;5220;43.192;23.284;2023-04-21T05:50:52;96587.75;;;14.16;100.00
10348;BME280;5220;43.192;23.284;2023-04-21T05:53:19;96584.97;;;14.17;100.00
10348;BME280;5220;43.192;23.284;2023-04-21T05:55:48;96581.09;;;14.21;100.00
10348;BME280;5220;43.192;23.284;2023-04-21T05:58:16;96582.19;;;14.28;100.00
10348;BME280;5220;43.192;23.284;2023-04-21T06:00:42;96580.00;;;14.33;100.00
10348;BME280;5220;43.192;23.284;2023-04-21T06:03:10;96584.66;;;14.39;100.00
10348;BME280;5220;43.192;23.284;2023-04-21T06:05:37;96583.22;;;14.45;100.00
10348;BME280;5220;43.192;23.284;2023-04-21T06:08:04;96573.75;;;14.44;100.00
10348;BME280;5220;43.192;23.284;2023-04-21T06:10:31;96577.63;;;14.30;100.00
10348;BME280;5220;43.192;23.284;2023-04-21T06:12:58;96582.97;;;14.38;100.00
10348;BME280;5220;43.192;23.284;2023-04-21T06:15:26;96584.22;;;14.44;100.00
10348;BME280;5220;43.192;23.284;2023-04-21T06:17:53;96581.16;;;14.48;100.00
10348;BME280;5220;43.192;23.284;2023-04-21T06:20:20;96588.72;;;14.51;100.00
10348;BME280;5220;43.192;23.284;2023-04-21T06:22:47;96591.03;;;14.54;100.00
10348;BME280;5220;43.192;23.284;2023-04-21T06:25:13;96585.38;;;14.59;100.00
10348;BME280;5220;43.192;23.284;2023-04-21T06:27:40;96585.88;;;14.72;100.00
10348;BME280;5220;43.192;23.284;2023-04-21T06:30:07;96592.25;;;14.87;100.00
10348;BME280;5220;43.192;23.284;2023-04-21T06:32:35;96588.69;;;15.06;100.00
10348;BME280;5220;43.192;23.284;2023-04-21T06:35:03;96594.78;;;15.24;100.00
10348;BME280;5220;43.192;23.284;2023-04-21T06:37:30;96589.22;;;15.45;100.00
10348;BME280;5220;43.192;23.284;2023-04-21T06:39:56;96593.50;;;15.64;100.00
10348;BME280;5220;43.192;23.284;2023-04-21T06:42:23;96590.13;;;15.71;100.00
10348;BME280;5220;43.192;23.284;2023-04-21T06:44:50;96586.63;;;15.63;100.00
10348;BME280;5220;43.192;23.284;2023-04-21T06:47:16;96588.19;;;15.55;100.00
10348;BME280;5220;43.192;23.284;2023-04-21T06:49:44;96584.28;;;15.42;100.00
10348;BME280;5220;43.192;23.284;2023-04-21T06:52:11;96592.97;;;15.60;100.00
10348;BME280;5220;43.192;23.284;2023-04-21T06:54:38;96586.63;;;15.63;100.00
10348;BME280;5220;43.192;23.284;2023-04-21T06:57:05;96589.47;;;15.51;100.00
10348;BME280;5220;43.192;23.284;2023-04-21T06:59:32;96583.00;;;15.64;100.00
10348;BME280;5220;43.192;23.284;2023-04-21T07:01:59;96590.97;;;15.72;100.00
10348;BME280;5220;43.192;23.284;2023-04-21T07:04:25;96587.22;;;15.74;100.00
10348;BME280;5220;43.192;23.284;2023-04-21T07:06:55;96603.59;;;15.76;100.00
10348;BME280;5220;43.192;23.284;2023-04-21T07:09:22;96595.59;;;15.60;100.00
10348;BME280;5220;43.192;23.284;2023-04-21T07:11:49;96601.00;;;15.58;100.00
10348;BME280;5220;43.192;23.284;2023-04-21T07:14:15;96594.25;;;15.74;100.00
10348;BME280;5220;43.192;23.284;2023-04-21T07:16:42;96596.03;;;15.91;100.00
10348;BME280;5220;43.192;23.284;2023-04-21T07:19:08;96596.59;;;16.02;100.00
10348;BME280;5220;43.192;23.284;2023-04-21T07:21:35;96599.63;;;16.16;100.00
10348;BME280;5220;43.192;23.284;2023-04-21T07:24:04;96595.25;;;16.24;100.00
10348;BME280;5220;43.192;23.284;2023-04-21T07:26:31;96598.06;;;16.31;100.00
10348;BME280;5220;43.192;23.284;2023-04-21T07:28:58;96598.59;;;16.34;100.00
10348;BME280;5220;43.192;23.284;2023-04-21T07:31:25;96590.88;;;16.41;98.40
10348;BME280;5220;43.192;23.284;2023-04-21T07:33:52;96598.16;;;16.47;98.00
10348;BME280;5220;43.192;23.284;2023-04-21T07:36:18;96597.47;;;16.45;100.00
10348;BME280;5220;43.192;23.284;2023-04-21T07:38:45;96594.78;;;16.54;100.00
10348;BME280;5220;43.192;23.284;2023-04-21T07:41:13;96596.53;;;16.54;100.00
10348;BME280;5220;43.192;23.284;2023-04-21T07:43:40;96596.44;;;16.55;98.68
10348;BME280;5220;43.192;23.284;2023-04-21T07:46:07;96593.19;;;16.70;98.51
10348;BME280;5220;43.192;23.284;2023-04-21T07:48:33;96596.03;;;16.50;100.00
10348;BME280;5220;43.192;23.284;2023-04-21T07:51:00;96603.72;;;16.44;95.86
10348;BME280;5220;43.192;23.284;2023-04-21T07:53:27;96604.97;;;16.57;97.65
10348;BME280;5220;43.192;23.284;2023-04-21T07:55:55;96599.44;;;16.69;99.65
10348;BME280;5220;43.192;23.284;2023-04-21T07:58:23;96604.69;;;16.69;100.00
10348;BME280;5220;43.192;23.284;2023-04-21T08:00:49;96602.06;;;16.43;100.00
10348;BME280;5220;43.192;23.284;2023-04-21T08:03:16;96611.34;;;16.55;100.00
10348;BME280;5220;43.192;23.284;2023-04-21T08:05:43;96605.28;;;16.54;99.84
10348;BME280;5220;43.192;23.284;2023-04-21T08:08:10;96611.88;;;16.41;100.00
10348;BME280;5220;43.192;23.284;2023-04-21T08:10:37;96609.97;;;16.51;100.00
10348;BME280;5220;43.192;23.284;2023-04-21T08:13:03;96612.56;;;16.69;98.74
10348;BME280;5220;43.192;23.284;2023-04-21T08:15:32;96609.19;;;16.84;100.00
10348;BME280;5220;43.192;23.284;2023-04-21T08:17:59;96609.75;;;17.12;100.00
10348;BME280;5220;43.192;23.284;2023-04-21T08:20:25;96609.09;;;17.10;97.99
10348;BME280;5220;43.192;23.284;2023-04-21T08:22:52;96603.25;;;17.40;100.00
10348;BME280;5220;43.192;23.284;2023-04-21T08:25:19;96598.94;;;17.31;97.87
10348;BME280;5220;43.192;23.284;2023-04-21T08:27:45;96595.50;;;17.31;99.56
10348;BME280;5220;43.192;23.284;2023-04-21T08:30:13;96594.34;;;17.41;99.58
10348;BME280;5220;43.192;23.284;2023-04-21T08:32:41;96599.94;;;17.38;100.00
10348;BME280;5220;43.192;23.284;2023-04-21T08:35:09;96598.94;;;17.15;100.00
10348;BME280;5220;43.192;23.284;2023-04-21T08:37:36;96591.38;;;17.20;100.00
10348;BME280;5220;43.192;23.284;2023-04-21T08:40:03;96588.38;;;17.07;100.00
10348;BME280;5220;43.192;23.284;2023-04-21T08:42:30;96583.44;;;17.04;100.00
10348;BME280;5220;43.192;23.284;2023-04-21T08:44:57;96587.41;;;17.00;100.00
10348;BME280;5220;43.192;23.284;2023-04-21T08:47:24;96587.72;;;17.13;100.00
10348;BME280;5220;43.192;23.284;2023-04-21T08:49:52;96584.44;;;17.03;100.00
10348;BME280;5220;43.192;23.284;2023-04-21T08:52:19;96582.50;;;17.21;100.00
10348;BME280;5220;43.192;23.284;2023-04-21T08:54:47;96587.47;;;17.40;100.00
10348;BME280;5220;43.192;23.284;2023-04-21T08:57:17;96584.00;;;17.24;100.00
10348;BME280;5220;43.192;23.284;2023-04-21T08:59:44;96582.97;;;17.08;100.00
10348;BME280;5220;43.192;23.284;2023-04-21T09:02:12;96584.16;;;17.38;100.00
10348;BME280;5220;43.192;23.284;2023-04-21T09:04:39;96577.28;;;17.37;100.00
10348;BME280;5220;43.192;23.284;2023-04-21T09:07:08;96584.19;;;17.46;100.00
10348;BME280;5220;43.192;23.284;2023-04-21T09:09:52;96597.81;;;17.34;100.00
10348;BME280;5220;43.192;23.284;2023-04-21T09:12:19;96588.91;;;17.35;100.00
10348;BME280;5220;43.192;23.284;2023-04-21T09:14:47;96592.16;;;17.04;100.00
10348;BME280;5220;43.192;23.284;2023-04-21T09:17:15;96589.41;;;17.22;100.00
10348;BME280;5220;43.192;23.284;2023-04-21T09:19:42;96584.31;;;17.29;100.00
10348;BME280;5220;43.192;23.284;2023-04-21T09:22:14;96584.34;;;17.37;100.00
10348;BME280;5220;43.192;23.284;2023-04-21T09:24:44;96588.09;;;17.34;100.00
10348;BME280;5220;43.192;23.284;2023-04-21T09:27:12;96576.75;;;17.17;100.00
10348;BME280;5220;43.192;23.284;2023-04-21T09:29:44;96583.25;;;16.81;100.00
10348;BME280;5220;43.192;23.284;2023-04-21T09:32:16;96590.69;;;16.60;100.00
10348;BME280;5220;43.192;23.284;2023-04-21T09:34:44;96594.03;;;16.44;100.00
10348;BME280;5220;43.192;23.284;2023-04-21T09:37:14;96591.88;;;16.40;100.00
10348;BME280;5220;43.192;23.284;2023-04-21T09:39:44;96593.66;;;16.31;100.00
10348;BME280;5220;43.192;23.284;2023-04-21T09:42:11;96585.50;;;16.42;100.00
10348;BME280;5220;43.192;23.284;2023-04-21T09:44:38;96587.41;;;16.58;100.00
10348;BME280;5220;43.192;23.284;2023-04-21T09:47:09;96579.84;;;16.29;100.00
10348;BME280;5220;43.192;23.284;2023-04-21T09:49:38;96579.72;;;16.39;100.00
10348;BME280;5220;43.192;23.284;2023-04-21T09:52:09;96577.72;;;16.58;100.00
10348;BME280;5220;43.192;23.284;2023-04-21T09:54:42;96561.34;;;16.64;100.00
10348;BME280;5220;43.192;23.284;2023-04-21T09:57:12;96562.13;;;16.57;100.00
10348;BME280;5220;43.192;23.284;2023-04-21T09:59:44;96566.47;;;16.74;100.00
10348;BME280;5220;43.192;23.284;2023-04-21T10:02:11;96575.84;;;16.17;100.00
10348;BME280;5220;43.192;23.284;2023-04-21T10:04:40;96578.47;;;16.17;100.00
10348;BME280;5220;43.192;23.284;2023-04-21T10:07:08;96574.66;;;16.37;100.00
10348;BME280;5220;43.192;23.284;2023-04-21T10:09:39;96573.97;;;16.35;100.00
10348;BME280;5220;43.192;23.284;2023-04-21T10:12:08;96573.84;;;16.45;100.00
10348;BME280;5220;43.192;23.284;2023-04-21T10:14:35;96565.00;;;16.46;100.00
10348;BME280;5220;43.192;23.284;2023-04-21T10:17:03;96570.69;;;16.59;100.00
10348;BME280;5220;43.192;23.284;2023-04-21T10:19:30;96565.78;;;16.72;100.00
10348;BME280;5220;43.192;23.284;2023-04-21T10:22:00;96567.53;;;17.05;100.00
10348;BME280;5220;43.192;23.284;2023-04-21T10:24:28;96565.72;;;17.22;100.00
10348;BME280;5220;43.192;23.284;2023-04-21T10:26:57;96567.88;;;17.27;100.00
10348;BME280;5220;43.192;23.284;2023-04-21T10:29:30;96566.56;;;17.23;100.00
10348;BME280;5220;43.192;23.284;2023-04-21T10:31:57;96566.06;;;17.11;100.00
10348;BME280;5220;43.192;23.284;2023-04-21T10:34:34;96562.31;;;17.38;100.00
10348;BME280;5220;43.192;23.284;2023-04-21T10:37:12;96566.41;;;17.24;100.00
10348;BME280;5220;43.192;23.284;2023-04-21T10:39:43;96550.00;;;17.62;100.00
10348;BME280;5220;43.192;23.284;2023-04-21T10:42:24;96549.31;;;18.01;100.00
10348;BME280;5220;43.192;23.284;2023-04-21T10:44:53;96544.91;;;17.93;100.00
10348;BME280;5220;43.192;23.284;2023-04-21T10:47:26;96547.81;;;18.14;100.00
10348;BME280;5220;43.192;23.284;2023-04-21T10:49:55;96543.69;;;18.20;100.00
10348;BME280;5220;43.192;23.284;2023-04-21T10:52:30;96536.13;;;18.17;100.00
10348;BME280;5220;43.192;23.284;2023-04-21T10:55:06;96543.50;;;18.30;100.00
10348;BME280;5220;43.192;23.284;2023-04-21T10:57:36;96524.63;;;18.65;100.00
10348;BME280;5220;43.192;23.284;2023-04-21T11:00:04;96526.06;;;18.98;100.00
10348;BME280;5220;43.192;23.284;2023-04-21T11:02:33;96521.53;;;18.84;98.34
10348;BME280;5220;43.192;23.284;2023-04-21T11:05:00;96524.03;;;19.08;96.35
10348;BME280;5220;43.192;23.284;2023-04-21T11:07:28;96532.84;;;18.62;97.06
10348;BME280;5220;43.192;23.284;2023-04-21T11:09:56;96533.38;;;18.57;100.00
10348;BME280;5220;43.192;23.284;2023-04-21T11:12:26;96530.53;;;18.59;100.00
10348;BME280;5220;43.192;23.284;2023-04-21T11:14:55;96528.63;;;18.45;100.00
10348;BME280;5220;43.192;23.284;2023-04-21T11:17:23;96531.09;;;18.38;100.00
10348;BME280;5220;43.192;23.284;2023-04-21T11:19:51;96525.69;;;18.40;100.00
10348;BME280;5220;43.192;23.284;2023-04-21T11:22:19;96523.81;;;18.48;100.00
10348;BME280;5220;43.192;23.284;2023-04-21T11:24:47;96520.56;;;18.38;100.00
10348;BME280;5220;43.192;23.284;2023-04-21T11:27:15;96522.53;;;18.44;100.00
10348;BME280;5220;43.192;23.284;2023-04-21T11:29:43;96520.97;;;18.66;100.00
10348;BME280;5220;43.192;23.284;2023-04-21T11:32:13;96525.41;;;18.65;98.05
10348;BME280;5220;43.192;23.284;2023-04-21T11:34:40;96526.16;;;18.51;99.16
10348;BME280;5220;43.192;23.284;2023-04-21T11:37:09;96520.53;;;18.54;100.00
10348;BME280;5220;43.192;23.284;2023-04-21T11:39:39;96520.63;;;18.22;100.00
10348;BME280;5220;43.192;23.284;2023-04-21T11:42:06;96523.69;;;18.42;100.00
10348;BME280;5220;43.192;23.284;2023-04-21T11:44:34;96521.66;;;18.05;100.00
10348;BME280;5220;43.192;23.284;2023-04-21T11:47:12;96527.03;;;18.27;100.00
10348;BME280;5220;43.192;23.284;2023-04-21T11:49:44;96524.09;;;18.22;100.00
10348;BME280;5220;43.192;23.284;2023-04-21T11:52:22;96521.50;;;18.14;100.00
10348;BME280;5220;43.192;23.284;2023-04-21T11:54:54;96515.84;;;18.25;100.00
10348;BME280;5220;43.192;23.284;2023-04-21T11:57:21;96516.63;;;18.42;98.68
10348;BME280;5220;43.192;23.284;2023-04-21T11:59:48;96520.97;;;18.66;100.00
10348;BME280;5220;43.192;23.284;2023-04-21T12:02:23;96516.38;;;18.91;97.26
10348;BME280;5220;43.192;23.284;2023-04-21T12:05:00;96508.06;;;18.79;93.00
10348;BME280;5220;43.192;23.284;2023-04-21T12:07:29;96505.56;;;18.86;91.77
10348;BME280;5220;43.192;23.284;2023-04-21T12:09:57;96508.09;;;19.02;93.69
10348;BME280;5220;43.192;23.284;2023-04-21T12:12:24;96506.59;;;18.99;93.21
10348;BME280;5220;43.192;23.284;2023-04-21T12:14:51;96511.84;;;19.07;94.07
10348;BME280;5220;43.192;23.284;2023-04-21T12:17:18;96507.91;;;19.03;95.51
10348;BME280;5220;43.192;23.284;2023-04-21T12:19:46;96511.38;;;19.04;93.64
10348;BME280;5220;43.192;23.284;2023-04-21T12:22:14;96510.06;;;19.00;94.21
10348;BME280;5220;43.192;23.284;2023-04-21T12:24:43;96510.31;;;19.13;93.67
10348;BME280;5220;43.192;23.284;2023-04-21T12:27:10;96505.63;;;19.00;95.38
10348;BME280;5220;43.192;23.284;2023-04-21T12:29:38;96500.91;;;18.88;96.87
10348;BME280;5220;43.192;23.284;2023-04-21T12:32:05;96505.22;;;18.89;96.62
10348;BME280;5220;43.192;23.284;2023-04-21T12:34:33;96504.97;;;18.98;95.95
10348;BME280;5220;43.192;23.284;2023-04-21T12:37:02;96502.72;;;18.87;97.25
10348;BME280;5220;43.192;23.284;2023-04-21T12:39:28;96507.03;;;18.88;97.75
10348;BME280;5220;43.192;23.284;2023-04-21T12:41:55;96510.06;;;18.77;95.32
10348;BME280;5220;43.192;23.284;2023-04-21T12:44:22;96507.31;;;18.93;91.79
10348;BME280;5220;43.192;23.284;2023-04-21T12:46:49;96507.97;;;18.95;91.25
10348;BME280;5220;43.192;23.284;2023-04-21T12:49:16;96507.44;;;19.00;90.33
10348;BME280;5220;43.192;23.284;2023-04-21T12:51:43;96507.97;;;18.95;89.23
10348;BME280;5220;43.192;23.284;2023-04-21T12:54:11;96504.22;;;19.12;90.95
10348;BME280;5220;43.192;23.284;2023-04-21T12:56:38;96502.56;;;19.34;92.46